Terminal Aerodrome Forecast
Issued by NWS

Home | Current Version | Previous Version | Text Only | Print | Product List | Glossary On
Versions: 1 2 3 4 5 6 7 8 9 10 11 12 13 14 15 16 17 18 19 20 21 22 23 24
000
FTPA31 PHFO 242300
TAFJRF
TAF
PHJR 242320Z 2500/2524 07009G16KT P6SM FEW035
     FM250600 07008KT P6SM FEW035 BKN050
     FM252000 07008G15KT P6SM FEW035=

USA.gov is the U.S. government's official web portal to all federal, state and local government web resources and services.